sensor_id;sensor_type;location;lat;lon;timestamp;pressure;altitude;pressure_sealevel;temperature;humidity
69247;BME280;56358;56.328;43.992;2022-09-09T00:00:19;100959.97;;;6.57;79.60
69247;BME280;56358;56.328;43.992;2022-09-09T00:02:22;100960.59;;;6.62;79.33
69247;BME280;56358;56.328;43.992;2022-09-09T00:04:29;100883.16;;;5.98;79.45
69247;BME280;56358;56.328;43.992;2022-09-09T00:09:00;100971.66;;;6.54;79.86
69247;BME280;56358;56.328;43.992;2022-09-09T00:11:03;100974.31;;;6.54;79.63
69247;BME280;56358;56.328;43.992;2022-09-09T00:13:14;100985.09;;;6.51;79.87
69247;BME280;56358;56.328;43.992;2022-09-09T00:17:43;100978.16;;;6.48;79.80
69247;BME280;56358;56.328;43.992;2022-09-09T00:22:17;100989.03;;;6.44;79.61
69247;BME280;56358;56.328;43.992;2022-09-09T00:24:32;100974.25;;;6.38;79.93
69247;BME280;56358;56.328;43.992;2022-09-09T00:26:45;100992.63;;;6.43;79.38
69247;BME280;56358;56.328;43.992;2022-09-09T00:28:54;100985.84;;;6.37;79.21
69247;BME280;56358;56.328;43.992;2022-09-09T00:30:56;100998.94;;;6.42;79.20
69247;BME280;56358;56.328;43.992;2022-09-09T00:33:00;100989.44;;;6.36;79.53
69247;BME280;56358;56.328;43.992;2022-09-09T00:35:25;101006.75;;;6.45;79.31
69247;BME280;56358;56.328;43.992;2022-09-09T00:37:26;101000.63;;;6.43;79.12
69247;BME280;56358;56.328;43.992;2022-09-09T00:39:34;100995.88;;;6.32;78.82
69247;BME280;56358;56.328;43.992;2022-09-09T00:43:57;100931.19;;;5.95;78.96
69247;BME280;56358;56.328;43.992;2022-09-09T00:54:00;101012.56;;;6.35;79.33
69247;BME280;56358;56.328;43.992;2022-09-09T00:58:05;100920.63;;;5.76;78.82
69247;BME280;56358;56.328;43.992;2022-09-09T01:00:21;101017.34;;;6.29;78.13
69247;BME280;56358;56.328;43.992;2022-09-09T01:04:34;101013.34;;;6.20;78.98
69247;BME280;56358;56.328;43.992;2022-09-09T01:06:37;101021.47;;;6.17;79.33
69247;BME280;56358;56.328;43.992;2022-09-09T01:11:23;100925.63;;;5.64;79.85
69247;BME280;56358;56.328;43.992;2022-09-09T01:13:32;101014.50;;;6.14;79.37
69247;BME280;56358;56.328;43.992;2022-09-09T01:15:34;101023.06;;;6.21;79.67
69247;BME280;56358;56.328;43.992;2022-09-09T01:18:04;101023.84;;;6.23;79.64
69247;BME280;56358;56.328;43.992;2022-09-09T01:20:25;101028.22;;;6.24;79.07
69247;BME280;56358;56.328;43.992;2022-09-09T01:27:32;101019.19;;;6.09;79.30
69247;BME280;56358;56.328;43.992;2022-09-09T01:29:34;101037.47;;;6.17;78.84
69247;BME280;56358;56.328;43.992;2022-09-09T01:31:39;101039.28;;;6.16;79.26
69247;BME280;56358;56.328;43.992;2022-09-09T01:33:41;100995.53;;;5.85;79.49
69247;BME280;56358;56.328;43.992;2022-09-09T01:36:04;100953.50;;;5.75;79.07
69247;BME280;56358;56.328;43.992;2022-09-09T01:38:08;100986.91;;;5.80;79.21
69247;BME280;56358;56.328;43.992;2022-09-09T01:40:09;100934.28;;;5.50;78.78
69247;BME280;56358;56.328;43.992;2022-09-09T01:42:12;101041.94;;;6.16;78.81
69247;BME280;56358;56.328;43.992;2022-09-09T01:44:14;100935.16;;;5.51;78.76
69247;BME280;56358;56.328;43.992;2022-09-09T01:46:14;101050.69;;;6.18;78.11
69247;BME280;56358;56.328;43.992;2022-09-09T01:48:17;101041.47;;;6.08;78.12
69247;BME280;56358;56.328;43.992;2022-09-09T01:50:20;100982.25;;;5.66;78.86
69247;BME280;56358;56.328;43.992;2022-09-09T01:52:21;101044.91;;;6.10;78.68
69247;BME280;56358;56.328;43.992;2022-09-09T01:54:27;101029.38;;;6.01;78.65
69247;BME280;56358;56.328;43.992;2022-09-09T02:01:23;101055.53;;;6.10;79.20
69247;BME280;56358;56.328;43.992;2022-09-09T02:03:29;101055.00;;;6.03;78.63
69247;BME280;56358;56.328;43.992;2022-09-09T02:05:41;101058.44;;;6.06;78.57
69247;BME280;56358;56.328;43.992;2022-09-09T02:07:49;101063.81;;;6.04;78.97
69247;BME280;56358;56.328;43.992;2022-09-09T02:10:05;100962.03;;;5.45;79.02
69247;BME280;56358;56.328;43.992;2022-09-09T02:12:14;101073.09;;;5.95;78.53
69247;BME280;56358;56.328;43.992;2022-09-09T02:14:26;101075.84;;;5.94;78.93
69247;BME280;56358;56.328;43.992;2022-09-09T02:16:42;101057.44;;;5.89;78.92
69247;BME280;56358;56.328;43.992;2022-09-09T02:19:02;101047.97;;;5.83;79.09
69247;BME280;56358;56.328;43.992;2022-09-09T02:21:05;101072.38;;;5.92;78.95
69247;BME280;56358;56.328;43.992;2022-09-09T02:23:07;101043.16;;;5.73;78.75
69247;BME280;56358;56.328;43.992;2022-09-09T02:25:13;101074.41;;;5.86;78.83
69247;BME280;56358;56.328;43.992;2022-09-09T02:27:15;101070.34;;;5.79;79.10
69247;BME280;56358;56.328;43.992;2022-09-09T02:29:23;101092.34;;;5.83;79.22
69247;BME280;56358;56.328;43.992;2022-09-09T02:31:25;101045.69;;;5.57;79.58
69247;BME280;56358;56.328;43.992;2022-09-09T02:33:33;100914.06;;;4.73;79.23
69247;BME280;56358;56.328;43.992;2022-09-09T02:35:37;101062.94;;;5.67;79.18
69247;BME280;56358;56.328;43.992;2022-09-09T02:37:40;101085.50;;;5.77;79.32
69247;BME280;56358;56.328;43.992;2022-09-09T02:39:42;101085.97;;;5.68;78.86
69247;BME280;56358;56.328;43.992;2022-09-09T02:41:42;101072.00;;;5.63;79.04
69247;BME280;56358;56.328;43.992;2022-09-09T02:43:43;101096.53;;;5.69;79.26
69247;BME280;56358;56.328;43.992;2022-09-09T02:46:27;101094.88;;;5.67;79.26
69247;BME280;56358;56.328;43.992;2022-09-09T02:50:31;101100.41;;;5.62;79.21
69247;BME280;56358;56.328;43.992;2022-09-09T02:53:19;101106.59;;;5.63;78.90
69247;BME280;56358;56.328;43.992;2022-09-09T02:54:58;101068.19;;;5.30;79.56
69247;BME280;56358;56.328;43.992;2022-09-09T02:57:23;101089.69;;;5.45;79.04
69247;BME280;56358;56.328;43.992;2022-09-09T02:59:26;101013.78;;;4.99;78.82
69247;BME280;56358;56.328;43.992;2022-09-09T03:01:27;101108.69;;;5.56;79.34
69247;BME280;56358;56.328;43.992;2022-09-09T03:03:27;101113.28;;;5.52;79.25
69247;BME280;56358;56.328;43.992;2022-09-09T03:05:29;101104.50;;;5.50;78.91
69247;BME280;56358;56.328;43.992;2022-09-09T03:07:30;101121.19;;;5.54;79.08
69247;BME280;56358;56.328;43.992;2022-09-09T03:09:31;101057.06;;;5.22;78.24
69247;BME280;56358;56.328;43.992;2022-09-09T03:11:36;101089.09;;;5.38;78.67
69247;BME280;56358;56.328;43.992;2022-09-09T03:13:37;101137.88;;;5.58;78.84
69247;BME280;56358;56.328;43.992;2022-09-09T03:15:38;101061.72;;;5.17;78.53
69247;BME280;56358;56.328;43.992;2022-09-09T03:17:38;101125.75;;;5.50;78.27
69247;BME280;56358;56.328;43.992;2022-09-09T03:19:39;101140.03;;;5.49;78.15
69247;BME280;56358;56.328;43.992;2022-09-09T03:21:41;101135.41;;;5.53;78.37
69247;BME280;56358;56.328;43.992;2022-09-09T03:23:42;101040.44;;;4.98;78.37
69247;BME280;56358;56.328;43.992;2022-09-09T03:25:52;101127.50;;;5.51;78.01
69247;BME280;56358;56.328;43.992;2022-09-09T03:27:54;101104.13;;;5.39;78.41
69247;BME280;56358;56.328;43.992;2022-09-09T03:29:55;101169.44;;;5.65;77.79
69247;BME280;56358;56.328;43.992;2022-09-09T03:31:56;101145.78;;;5.59;77.67
69247;BME280;56358;56.328;43.992;2022-09-09T03:33:57;101137.06;;;5.56;77.74
69247;BME280;56358;56.328;43.992;2022-09-09T03:35:58;101161.81;;;5.77;77.84
69247;BME280;56358;56.328;43.992;2022-09-09T03:37:59;101169.78;;;5.77;77.17
69247;BME280;56358;56.328;43.992;2022-09-09T03:40:01;101090.34;;;5.31;76.69
69247;BME280;56358;56.328;43.992;2022-09-09T03:42:03;101152.41;;;5.69;76.60
69247;BME280;56358;56.328;43.992;2022-09-09T03:44:04;101070.00;;;5.11;76.60
69247;BME280;56358;56.328;43.992;2022-09-09T03:46:05;101055.38;;;5.00;76.32
69247;BME280;56358;56.328;43.992;2022-09-09T03:48:06;101160.56;;;5.65;76.64
69247;BME280;56358;56.328;43.992;2022-09-09T03:50:07;101163.22;;;5.65;76.06
69247;BME280;56358;56.328;43.992;2022-09-09T03:52:11;101171.56;;;5.57;76.24
69247;BME280;56358;56.328;43.992;2022-09-09T03:54:11;101177.25;;;5.49;76.28
69247;BME280;56358;56.328;43.992;2022-09-09T03:56:12;101175.44;;;5.50;76.73
69247;BME280;56358;56.328;43.992;2022-09-09T03:58:14;101160.63;;;5.44;76.79
69247;BME280;56358;56.328;43.992;2022-09-09T04:00:15;101167.19;;;5.56;76.93
69247;BME280;56358;56.328;43.992;2022-09-09T04:02:16;101181.34;;;5.57;76.60
69247;BME280;56358;56.328;43.992;2022-09-09T04:04:16;101108.94;;;5.12;76.61
69247;BME280;56358;56.328;43.992;2022-09-09T04:06:17;101197.16;;;5.60;76.91
69247;BME280;56358;56.328;43.992;2022-09-09T04:08:19;101171.13;;;5.47;76.26
69247;BME280;56358;56.328;43.992;2022-09-09T04:10:20;101183.94;;;5.58;76.58
69247;BME280;56358;56.328;43.992;2022-09-09T04:12:21;101184.81;;;5.59;75.74
69247;BME280;56358;56.328;43.992;2022-09-09T04:14:23;101193.78;;;5.56;75.90
69247;BME280;56358;56.328;43.992;2022-09-09T04:16:23;101189.13;;;5.61;75.41
69247;BME280;56358;56.328;43.992;2022-09-09T04:18:25;101195.81;;;5.70;75.61
69247;BME280;56358;56.328;43.992;2022-09-09T04:20:26;101186.25;;;5.66;74.70
69247;BME280;56358;56.328;43.992;2022-09-09T04:22:27;101209.69;;;5.58;75.10
69247;BME280;56358;56.328;43.992;2022-09-09T04:24:27;101201.34;;;5.65;74.94
69247;BME280;56358;56.328;43.992;2022-09-09T04:26:29;101203.13;;;5.65;75.22
69247;BME280;56358;56.328;43.992;2022-09-09T04:28:32;101211.69;;;5.71;75.05
69247;BME280;56358;56.328;43.992;2022-09-09T04:30:33;101223.22;;;5.72;75.04
69247;BME280;56358;56.328;43.992;2022-09-09T04:32:35;101182.28;;;5.56;74.98
69247;BME280;56358;56.328;43.992;2022-09-09T04:34:37;101212.44;;;5.75;74.61
69247;BME280;56358;56.328;43.992;2022-09-09T04:36:37;101212.22;;;5.80;75.13
69247;BME280;56358;56.328;43.992;2022-09-09T04:38:40;101211.59;;;5.75;74.82
69247;BME280;56358;56.328;43.992;2022-09-09T04:40:43;101195.53;;;5.76;74.36
69247;BME280;56358;56.328;43.992;2022-09-09T04:42:43;101196.13;;;5.83;74.00
69247;BME280;56358;56.328;43.992;2022-09-09T04:44:45;101124.25;;;5.45;74.38
69247;BME280;56358;56.328;43.992;2022-09-09T04:46:46;101202.66;;;5.95;73.32
69247;BME280;56358;56.328;43.992;2022-09-09T04:48:46;101222.69;;;6.03;73.57
69247;BME280;56358;56.328;43.992;2022-09-09T04:50:57;101118.50;;;5.54;73.29
69247;BME280;56358;56.328;43.992;2022-09-09T04:53:03;101217.72;;;6.15;73.06
69247;BME280;56358;56.328;43.992;2022-09-09T04:55:05;101186.28;;;6.04;72.64
69247;BME280;56358;56.328;43.992;2022-09-09T04:57:06;101220.50;;;6.31;72.63
69247;BME280;56358;56.328;43.992;2022-09-09T04:59:07;101211.00;;;6.25;72.10
69247;BME280;56358;56.328;43.992;2022-09-09T05:01:17;101170.44;;;6.01;71.98
69247;BME280;56358;56.328;43.992;2022-09-09T05:03:18;101140.41;;;5.97;71.18
69247;BME280;56358;56.328;43.992;2022-09-09T05:05:19;101122.94;;;5.92;71.18
69247;BME280;56358;56.328;43.992;2022-09-09T05:07:20;101229.81;;;6.59;70.87
69247;BME280;56358;56.328;43.992;2022-09-09T05:09:21;101225.03;;;6.65;70.94
69247;BME280;56358;56.328;43.992;2022-09-09T05:11:26;101206.75;;;6.58;70.38
69247;BME280;56358;56.328;43.992;2022-09-09T05:13:27;101234.69;;;6.85;70.28
69247;BME280;56358;56.328;43.992;2022-09-09T05:15:28;101234.31;;;6.93;69.57
69247;BME280;56358;56.328;43.992;2022-09-09T05:17:29;101232.47;;;6.95;69.86
69247;BME280;56358;56.328;43.992;2022-09-09T05:19:29;101165.66;;;6.63;69.07
69247;BME280;56358;56.328;43.992;2022-09-09T05:21:31;101237.94;;;7.10;69.54
69247;BME280;56358;56.328;43.992;2022-09-09T05:23:33;101227.81;;;7.16;69.19
69247;BME280;56358;56.328;43.992;2022-09-09T05:25:34;101155.22;;;6.76;68.86
69247;BME280;56358;56.328;43.992;2022-09-09T05:27:35;101235.88;;;7.32;68.47
69247;BME280;56358;56.328;43.992;2022-09-09T05:29:35;101236.59;;;7.36;67.91
69247;BME280;56358;56.328;43.992;2022-09-09T05:31:36;101238.94;;;7.42;68.26
69247;BME280;56358;56.328;43.992;2022-09-09T05:33:37;101237.44;;;7.36;67.87
69247;BME280;56358;56.328;43.992;2022-09-09T05:35:41;101187.19;;;7.29;67.65
69247;BME280;56358;56.328;43.992;2022-09-09T05:37:41;101248.66;;;7.77;67.30
69247;BME280;56358;56.328;43.992;2022-09-09T05:39:42;101245.25;;;7.91;67.30
69247;BME280;56358;56.328;43.992;2022-09-09T05:41:43;101239.84;;;7.92;65.21
69247;BME280;56358;56.328;43.992;2022-09-09T05:43:44;101249.22;;;7.99;65.50
69247;BME280;56358;56.328;43.992;2022-09-09T05:45:47;101219.59;;;7.88;64.59
69247;BME280;56358;56.328;43.992;2022-09-09T05:47:51;101251.75;;;8.02;64.88
69247;BME280;56358;56.328;43.992;2022-09-09T05:49:55;101253.22;;;8.08;64.99
69247;BME280;56358;56.328;43.992;2022-09-09T05:51:56;101165.75;;;7.64;64.42
69247;BME280;56358;56.328;43.992;2022-09-09T05:53:56;101258.97;;;8.16;63.41
69247;BME280;56358;56.328;43.992;2022-09-09T05:56:05;101267.00;;;8.16;63.53
69247;BME280;56358;56.328;43.992;2022-09-09T05:58:06;101262.09;;;8.25;63.48
69247;BME280;56358;56.328;43.992;2022-09-09T06:00:07;101261.84;;;8.29;63.34
69247;BME280;56358;56.328;43.992;2022-09-09T06:02:08;101279.75;;;8.27;62.66
69247;BME280;56358;56.328;43.992;2022-09-09T06:04:09;101257.34;;;8.30;61.61
69247;BME280;56358;56.328;43.992;2022-09-09T06:06:13;101183.16;;;7.87;61.66
69247;BME280;56358;56.328;43.992;2022-09-09T06:08:14;101263.72;;;8.43;61.86
69247;BME280;56358;56.328;43.992;2022-09-09T06:10:15;101257.38;;;8.46;61.99
69247;BME280;56358;56.328;43.992;2022-09-09T06:12:15;101279.78;;;8.59;62.54
69247;BME280;56358;56.328;43.992;2022-09-09T06:14:16;101265.22;;;8.65;62.01
69247;BME280;56358;56.328;43.992;2022-09-09T06:16:20;101252.47;;;8.54;59.88
69247;BME280;56358;56.328;43.992;2022-09-09T06:18:21;101267.34;;;8.74;60.93
69247;BME280;56358;56.328;43.992;2022-09-09T06:20:21;101181.22;;;8.37;61.93
69247;BME280;56358;56.328;43.992;2022-09-09T06:22:22;101265.34;;;8.94;59.91
69247;BME280;56358;56.328;43.992;2022-09-09T06:24:23;101240.78;;;8.87;59.49
69247;BME280;56358;56.328;43.992;2022-09-09T06:26:35;101276.84;;;9.10;59.76
69247;BME280;56358;56.328;43.992;2022-09-09T06:28:36;101255.41;;;8.96;59.15
69247;BME280;56358;56.328;43.992;2022-09-09T06:30:37;101264.56;;;8.92;58.95
69247;BME280;56358;56.328;43.992;2022-09-09T06:32:38;101264.94;;;8.85;60.13
69247;BME280;56358;56.328;43.992;2022-09-09T06:34:39;101226.84;;;8.66;60.04
69247;BME280;56358;56.328;43.992;2022-09-09T06:36:40;101286.53;;;9.13;60.20
69247;BME280;56358;56.328;43.992;2022-09-09T06:38:41;101272.78;;;9.19;59.47
69247;BME280;56358;56.328;43.992;2022-09-09T06:40:42;101279.03;;;9.34;58.79
69247;BME280;56358;56.328;43.992;2022-09-09T06:42:44;101291.50;;;9.64;57.65
69247;BME280;56358;56.328;43.992;2022-09-09T06:44:45;101304.59;;;9.68;57.49
69247;BME280;56358;56.328;43.992;2022-09-09T06:46:45;101299.63;;;9.62;56.60
69247;BME280;56358;56.328;43.992;2022-09-09T06:48:50;101293.00;;;9.53;56.27
69247;BME280;56358;56.328;43.992;2022-09-09T06:50:51;101302.13;;;9.35;55.56
69247;BME280;56358;56.328;43.992;2022-09-09T06:52:51;101311.75;;;9.39;55.77
69247;BME280;56358;56.328;43.992;2022-09-09T06:54:52;101160.47;;;8.58;56.16
69247;BME280;56358;56.328;43.992;2022-09-09T06:56:54;101286.09;;;9.35;55.50
69247;BME280;56358;56.328;43.992;2022-09-09T06:58:56;101308.47;;;9.48;55.32
69247;BME280;56358;56.328;43.992;2022-09-09T07:01:05;101300.44;;;9.48;54.90
69247;BME280;56358;56.328;43.992;2022-09-09T07:03:06;101305.25;;;9.57;55.36
69247;BME280;56358;56.328;43.992;2022-09-09T07:05:07;101310.72;;;9.70;54.97
69247;BME280;56358;56.328;43.992;2022-09-09T07:07:08;101293.72;;;9.71;55.74
69247;BME280;56358;56.328;43.992;2022-09-09T07:09:14;101281.09;;;9.88;54.74
69247;BME280;56358;56.328;43.992;2022-09-09T07:11:16;101312.28;;;10.03;55.37
69247;BME280;56358;56.328;43.992;2022-09-09T07:13:16;101314.66;;;9.94;54.50
69247;BME280;56358;56.328;43.992;2022-09-09T07:15:17;101302.81;;;9.83;52.34
69247;BME280;56358;56.328;43.992;2022-09-09T07:17:19;101304.13;;;9.76;53.21
69247;BME280;56358;56.328;43.992;2022-09-09T07:19:19;101322.59;;;9.66;53.43
69247;BME280;56358;56.328;43.992;2022-09-09T07:21:20;101312.34;;;9.59;53.67
69247;BME280;56358;56.328;43.992;2022-09-09T07:23:21;101327.41;;;9.45;52.68
69247;BME280;56358;56.328;43.992;2022-09-09T07:25:22;101297.28;;;9.27;52.97
69247;BME280;56358;56.328;43.992;2022-09-09T07:27:23;101295.00;;;9.35;53.64
69247;BME280;56358;56.328;43.992;2022-09-09T07:29:24;101336.38;;;9.44;52.97
69247;BME280;56358;56.328;43.992;2022-09-09T07:31:30;101308.78;;;9.44;53.68
69247;BME280;56358;56.328;43.992;2022-09-09T07:33:32;101313.78;;;9.50;53.85
69247;BME280;56358;56.328;43.992;2022-09-09T07:35:36;101232.63;;;9.04;53.08
69247;BME280;56358;56.328;43.992;2022-09-09T07:37:37;101317.34;;;9.65;53.78
69247;BME280;56358;56.328;43.992;2022-09-09T07:39:38;101326.50;;;9.75;53.88
69247;BME280;56358;56.328;43.992;2022-09-09T07:41:40;101318.88;;;9.69;53.26
69247;BME280;56358;56.328;43.992;2022-09-09T07:43:42;101333.13;;;9.84;53.09
69247;BME280;56358;56.328;43.992;2022-09-09T07:45:43;101242.22;;;9.37;51.11
69247;BME280;56358;56.328;43.992;2022-09-09T07:47:44;101306.66;;;9.79;51.19
69247;BME280;56358;56.328;43.992;2022-09-09T07:49:45;101322.03;;;9.76;51.87
69247;BME280;56358;56.328;43.992;2022-09-09T07:51:47;101256.19;;;9.43;52.66
69247;BME280;56358;56.328;43.992;2022-09-09T07:53:52;101341.53;;;9.78;52.85
69247;BME280;56358;56.328;43.992;2022-09-09T07:55:53;101327.97;;;9.81;53.13
69247;BME280;56358;56.328;43.992;2022-09-09T07:57:55;101332.34;;;9.67;53.39
69247;BME280;56358;56.328;43.992;2022-09-09T07:59:56;101331.31;;;9.70;53.47
69247;BME280;56358;56.328;43.992;2022-09-09T08:01:57;101327.66;;;9.71;53.13
69247;BME280;56358;56.328;43.992;2022-09-09T08:04:01;101352.34;;;9.76;52.42
69247;BME280;56358;56.328;43.992;2022-09-09T08:06:03;101335.22;;;9.79;51.97
69247;BME280;56358;56.328;43.992;2022-09-09T08:08:04;101340.47;;;9.66;52.56
69247;BME280;56358;56.328;43.992;2022-09-09T08:10:05;101340.38;;;9.67;53.00
69247;BME280;56358;56.328;43.992;2022-09-09T08:12:06;101344.00;;;9.66;52.70
69247;BME280;56358;56.328;43.992;2022-09-09T08:14:09;101249.81;;;9.15;52.69
69247;BME280;56358;56.328;43.992;2022-09-09T08:16:14;101356.94;;;9.74;53.67
69247;BME280;56358;56.328;43.992;2022-09-09T08:18:14;101327.25;;;9.63;53.22
69247;BME280;56358;56.328;43.992;2022-09-09T08:20:15;101345.56;;;9.85;51.44
69247;BME280;56358;56.328;43.992;2022-09-09T08:22:16;101354.84;;;9.94;52.07
69247;BME280;56358;56.328;43.992;2022-09-09T08:24:17;101323.38;;;9.97;51.36
69247;BME280;56358;56.328;43.992;2022-09-09T08:26:26;101347.97;;;10.18;50.29
69247;BME280;56358;56.328;43.992;2022-09-09T08:28:28;101350.34;;;10.23;50.55
69247;BME280;56358;56.328;43.992;2022-09-09T08:30:29;101349.22;;;10.27;49.47
69247;BME280;56358;56.328;43.992;2022-09-09T08:32:30;101333.91;;;10.15;49.57
69247;BME280;56358;56.328;43.992;2022-09-09T08:34:30;101365.97;;;10.31;49.30
69247;BME280;56358;56.328;43.992;2022-09-09T08:36:34;101355.84;;;10.36;48.79
69247;BME280;56358;56.328;43.992;2022-09-09T08:38:36;101351.16;;;10.39;48.34
69247;BME280;56358;56.328;43.992;2022-09-09T08:40:42;101344.13;;;10.66;48.76
69247;BME280;56358;56.328;43.992;2022-09-09T08:42:51;101285.41;;;10.19;47.97
69247;BME280;56358;56.328;43.992;2022-09-09T08:45:14;101352.00;;;10.54;47.24
69247;BME280;56358;56.328;43.992;2022-09-09T08:50:12;101361.56;;;10.59;48.32
69247;BME280;56358;56.328;43.992;2022-09-09T08:52:29;101384.66;;;10.61;47.81
69247;BME280;56358;56.328;43.992;2022-09-09T08:54:33;101351.53;;;10.48;47.38
69247;BME280;56358;56.328;43.992;2022-09-09T08:56:36;101351.72;;;10.45;47.71
69247;BME280;56358;56.328;43.992;2022-09-09T08:58:46;101365.69;;;10.64;48.34
69247;BME280;56358;56.328;43.992;2022-09-09T09:06:06;101377.25;;;11.34;45.97
69247;BME280;56358;56.328;43.992;2022-09-09T09:10:51;101373.84;;;12.11;43.29
69247;BME280;56358;56.328;43.992;2022-09-09T09:12:54;101310.97;;;12.00;41.98
69247;BME280;56358;56.328;43.992;2022-09-09T09:14:55;101365.78;;;12.36;42.53
69247;BME280;56358;56.328;43.992;2022-09-09T09:17:20;101235.28;;;11.68;42.53
69247;BME280;56358;56.328;43.992;2022-09-09T09:19:22;101370.88;;;13.02;41.76
69247;BME280;56358;56.328;43.992;2022-09-09T09:23:44;101359.09;;;12.29;42.20
69247;BME280;56358;56.328;43.992;2022-09-09T09:25:46;101368.59;;;12.22;42.91
69247;BME280;56358;56.328;43.992;2022-09-09T09:28:01;101359.97;;;11.91;43.44
69247;BME280;56358;56.328;43.992;2022-09-09T09:30:17;101375.41;;;11.74;44.04
69247;BME280;56358;56.328;43.992;2022-09-09T09:32:20;101380.22;;;11.56;44.19
69247;BME280;56358;56.328;43.992;2022-09-09T09:34:23;101368.81;;;11.53;44.72
69247;BME280;56358;56.328;43.992;2022-09-09T09:36:34;101352.53;;;11.29;45.14
69247;BME280;56358;56.328;43.992;2022-09-09T09:38:37;101372.09;;;11.31;45.59
69247;BME280;56358;56.328;43.992;2022-09-09T09:40:48;101369.94;;;11.23;46.51
69247;BME280;56358;56.328;43.992;2022-09-09T09:42:56;101366.53;;;11.06;47.13
69247;BME280;56358;56.328;43.992;2022-09-09T09:45:08;101380.69;;;10.81;48.15
69247;BME280;56358;56.328;43.992;2022-09-09T09:47:15;101374.56;;;10.79;47.68
69247;BME280;56358;56.328;43.992;2022-09-09T09:49:16;101383.00;;;10.73;48.42
69247;BME280;56358;56.328;43.992;2022-09-09T09:51:18;101375.59;;;10.77;49.03
69247;BME280;56358;56.328;43.992;2022-09-09T09:53:27;101374.06;;;11.54;46.35
69247;BME280;56358;56.328;43.992;2022-09-09T09:55:30;101366.63;;;12.24;44.51
69247;BME280;56358;56.328;43.992;2022-09-09T09:57:32;101376.50;;;12.49;44.44
69247;BME280;56358;56.328;43.992;2022-09-09T09:59:35;101357.88;;;13.45;42.80
69247;BME280;56358;56.328;43.992;2022-09-09T10:01:36;101370.56;;;14.36;40.38
69247;BME280;56358;56.328;43.992;2022-09-09T10:03:37;101384.19;;;14.80;40.25
69247;BME280;56358;56.328;43.992;2022-09-09T10:05:46;101373.06;;;15.06;38.35
69247;BME280;56358;56.328;43.992;2022-09-09T10:08:00;101357.06;;;14.36;40.20
69247;BME280;56358;56.328;43.992;2022-09-09T10:10:01;101317.31;;;13.70;42.46
69247;BME280;56358;56.328;43.992;2022-09-09T10:19:32;101393.81;;;11.81;45.18
69247;BME280;56358;56.328;43.992;2022-09-09T10:26:28;101387.44;;;13.09;44.50
69247;BME280;56358;56.328;43.992;2022-09-09T10:31:18;101362.88;;;13.73;40.77
69247;BME280;56358;56.328;43.992;2022-09-09T10:38:15;101382.06;;;13.57;43.23
69247;BME280;56358;56.328;43.992;2022-09-09T10:40:41;101403.41;;;14.19;40.81
69247;BME280;56358;56.328;43.992;2022-09-09T10:42:45;101397.19;;;14.64;40.03
69247;BME280;56358;56.328;43.992;2022-09-09T10:55:02;101383.06;;;13.68;42.62
69247;BME280;56358;56.328;43.992;2022-09-09T10:57:17;101387.63;;;12.82;43.41
69247;BME280;56358;56.328;43.992;2022-09-09T10:59:31;101328.56;;;11.91;46.14
69247;BME280;56358;56.328;43.992;2022-09-09T11:01:41;101400.75;;;12.36;46.42
69247;BME280;56358;56.328;43.992;2022-09-09T11:03:49;101397.38;;;12.58;46.42
69247;BME280;56358;56.328;43.992;2022-09-09T11:05:56;101409.84;;;12.60;46.08
69247;BME280;56358;56.328;43.992;2022-09-09T11:08:26;101395.91;;;13.16;45.81
69247;BME280;56358;56.328;43.992;2022-09-09T11:13:04;101321.97;;;14.48;42.61
69247;BME280;56358;56.328;43.992;2022-09-09T11:15:14;101384.91;;;15.80;40.52
69247;BME280;56358;56.328;43.992;2022-09-09T11:17:23;101376.88;;;16.11;39.34
69247;BME280;56358;56.328;43.992;2022-09-09T11:21:40;101377.63;;;16.94;36.97
69247;BME280;56358;56.328;43.992;2022-09-09T11:23:47;101312.66;;;17.04;36.11
69247;BME280;56358;56.328;43.992;2022-09-09T11:25:55;101393.31;;;18.28;35.12
69247;BME280;56358;56.328;43.992;2022-09-09T11:35:08;101336.56;;;19.26;31.58
69247;BME280;56358;56.328;43.992;2022-09-09T11:37:42;101386.97;;;19.56;31.38
69247;BME280;56358;56.328;43.992;2022-09-09T11:40:04;101392.16;;;18.96;32.48
69247;BME280;56358;56.328;43.992;2022-09-09T11:44:20;101366.56;;;17.66;34.39
69247;BME280;56358;56.328;43.992;2022-09-09T11:46:37;101374.56;;;16.68;36.70
69247;BME280;56358;56.328;43.992;2022-09-09T11:48:41;101243.13;;;15.20;37.95
69247;BME280;56358;56.328;43.992;2022-09-09T11:50:57;101376.59;;;15.50;39.10
69247;BME280;56358;56.328;43.992;2022-09-09T11:55:34;101300.28;;;13.93;40.46
69247;BME280;56358;56.328;43.992;2022-09-09T11:57:36;101399.44;;;14.00;41.98
69247;BME280;56358;56.328;43.992;2022-09-09T11:59:38;101408.72;;;13.49;44.45
69247;BME280;56358;56.328;43.992;2022-09-09T12:01:41;101395.56;;;12.33;51.61
69247;BME280;56358;56.328;43.992;2022-09-09T12:03:51;101426.22;;;11.65;55.19
69247;BME280;56358;56.328;43.992;2022-09-09T12:05:55;101394.22;;;11.07;56.18
69247;BME280;56358;56.328;43.992;2022-09-09T12:07:58;101416.97;;;11.01;57.37
69247;BME280;56358;56.328;43.992;2022-09-09T12:10:22;101426.59;;;10.62;58.15
69247;BME280;56358;56.328;43.992;2022-09-09T12:12:26;101341.66;;;10.05;58.26
69247;BME280;56358;56.328;43.992;2022-09-09T12:16:41;101388.59;;;10.41;58.64
69247;BME280;56358;56.328;43.992;2022-09-09T12:18:43;101357.34;;;10.26;57.70
69247;BME280;56358;56.328;43.992;2022-09-09T12:23:30;101399.84;;;11.97;56.03
69247;BME280;56358;56.328;43.992;2022-09-09T12:25:48;101404.53;;;12.71;50.88
69247;BME280;56358;56.328;43.992;2022-09-09T12:30:17;101313.63;;;12.26;50.04
69247;BME280;56358;56.328;43.992;2022-09-09T12:32:23;101324.94;;;12.18;50.19